Keret — UAEH — position and weather

sailwx.info

Track history (hours):
 
Tides and Currents Weather Stations Pressure Air Temp Water Temp Dewpoint Dewpoint Depression Visibility Wind Speed Wind Dir Waves Ship Positions

Keret

Last reported at 2014-Aug-29 06:33 UTC. Time now 2014-Aug-30 12:29 UTC.
Position N 59°56' E 030°16'.

Length 82 m; draft 3.8 m.

Type: Cargo ship. MMSI: 273333000.

Date/timePositionNaut miles runAvg speedWind from/ knotsBaromVisibWave heightAir tempDewpointWater temp
2014-Aug-29 06:33N 59°56' E 030°16'0 0.4
2014-Aug-29 05:34N 59°56' E 030°17'0 0.0
2014-Aug-29 04:29N 59°56' E 030°17'0 0.0
2014-Aug-29 00:33N 59°56' E 030°17'  
2014-Aug-22 22:06N 59°57' E 030°24'4 6.5
2014-Aug-22 21:33N 59°56' E 030°17'0 0.2
2014-Aug-22 20:33N 59°56' E 030°17'0 0.0
2014-Aug-22 19:33N 59°56' E 030°17'0 0.0
2014-Aug-22 18:33N 59°56' E 030°17'0 0.0
2014-Aug-22 17:33N 59°56' E 030°17'0 0.0
2014-Aug-22 16:33N 59°56' E 030°17'0 0.0
2014-Aug-22 15:33N 59°56' E 030°17'0 0.0
2014-Aug-22 14:33N 59°56' E 030°17'0 0.0
2014-Aug-22 13:33N 59°56' E 030°17'0 0.0
2014-Aug-22 12:33N 59°56' E 030°17'0 0.0
2014-Aug-22 11:33N 59°56' E 030°17'0 0.0
2014-Aug-22 10:33N 59°56' E 030°17'0 0.0
2014-Aug-22 09:33N 59°56' E 030°17'0 0.0
2014-Aug-22 08:33N 59°56' E 030°17'0 0.0
2014-Aug-22 07:33N 59°56' E 030°17'4 4.0
2014-Aug-22 06:33N 59°56' E 030°09'3 0.1
2014-Aug-20 07:32N 59°55' E 030°15'2 1.6
2014-Aug-20 06:33N 59°56' E 030°17'0 0.0
2014-Aug-20 05:33N 59°56' E 030°17'0 0.0
2014-Aug-20 04:32N 59°56' E 030°17'0 0.0
2014-Aug-20 03:33N 59°56' E 030°17'0 0.0
2014-Aug-20 02:32N 59°56' E 030°17'0 0.0
2014-Aug-20 01:30N 59°56' E 030°17'0 0.0
2014-Aug-20 00:31N 59°56' E 030°17'3 3.5
2014-Aug-19 23:33N 59°57' E 030°23'  
Track history (hours):
 
Tides and Currents Weather Stations Pressure Air Temp Water Temp Dewpoint Dewpoint Depression Visibility Wind Speed Wind Dir Waves Ship Positions

Keret

Last reported at 2014-Aug-29 06:33 UTC. Time now 2014-Aug-30 12:29 UTC.
Position N 59°56' E 030°16'.

Length 82 m; draft 3.8 m.

Type: Cargo ship. MMSI: 273333000.

Date/timePositionNaut miles runAvg speedWind from/ knotsBaromVisibWave heightAir tempDewpointWater temp
2014-Aug-29 06:33N 59°56' E 030°16'0 0.4
2014-Aug-29 05:34N 59°56' E 030°17'0 0.0
2014-Aug-29 04:29N 59°56' E 030°17'0 0.0
2014-Aug-29 00:33N 59°56' E 030°17'  
2014-Aug-22 22:06N 59°57' E 030°24'4 6.5
2014-Aug-22 21:33N 59°56' E 030°17'0 0.2
2014-Aug-22 20:33N 59°56' E 030°17'0 0.0
2014-Aug-22 19:33N 59°56' E 030°17'0 0.0
2014-Aug-22 18:33N 59°56' E 030°17'0 0.0
2014-Aug-22 17:33N 59°56' E 030°17'0 0.0
2014-Aug-22 16:33N 59°56' E 030°17'0 0.0
2014-Aug-22 15:33N 59°56' E 030°17'0 0.0
2014-Aug-22 14:33N 59°56' E 030°17'0 0.0
2014-Aug-22 13:33N 59°56' E 030°17'0 0.0
2014-Aug-22 12:33N 59°56' E 030°17'0 0.0
2014-Aug-22 11:33N 59°56' E 030°17'0 0.0
2014-Aug-22 10:33N 59°56' E 030°17'0 0.0
2014-Aug-22 09:33N 59°56' E 030°17'0 0.0
2014-Aug-22 08:33N 59°56' E 030°17'0 0.0
2014-Aug-22 07:33N 59°56' E 030°17'4 4.0
2014-Aug-22 06:33N 59°56' E 030°09'3 0.1
2014-Aug-20 07:32N 59°55' E 030°15'2 1.6
2014-Aug-20 06:33N 59°56' E 030°17'0 0.0
2014-Aug-20 05:33N 59°56' E 030°17'0 0.0
2014-Aug-20 04:32N 59°56' E 030°17'0 0.0
2014-Aug-20 03:33N 59°56' E 030°17'0 0.0
2014-Aug-20 02:32N 59°56' E 030°17'0 0.0
2014-Aug-20 01:30N 59°56' E 030°17'0 0.0
2014-Aug-20 00:31N 59°56' E 030°17'3 3.5
2014-Aug-19 23:33N 59°57' E 030°23'  

Dump ship's entire track history